Time;durP1;ratioP1;P1;durP2;ratioP2;P2;SDS_P1;SDS_P2;PMS_P1;PMS_P2;Temp;Humidity;BMP_temperature;BMP_pressure;BME280_temperature;BME280_humidity;BME280_pressure;Samples;Min_cycle;Max_cycle;Signal;HPM_P1;HPM_P2
2023/01/22 00:00:56;;;;;;;;;;;-1.10;99.90;;;;;;4968678;28;20412;-71
2023/01/22 00:03:23;;;;;;;;;;;-1.10;99.90;;;;;;4966810;28;19926;-71
2023/01/22 00:05:51;;;;;;;;;;;-1.10;99.90;;;;;;4967458;28;20025;-72
2023/01/22 00:08:17;;;;;;;;;;;-1.00;99.90;;;;;;4967704;28;19926;-72
2023/01/22 00:10:48;;;;;;;;;;;-1.10;99.90;;;;;;4968732;28;19926;-74
2023/01/22 00:13:15;;;;;;;;;;;-1.10;99.90;;;;;;4968983;28;19977;-73
2023/01/22 00:15:43;;;;;;;;;;;-1.10;99.90;;;;;;4971190;28;19930;-71
2023/01/22 00:18:09;;;;;;;;;;;-1.10;99.90;;;;;;4967935;28;19926;-72
2023/01/22 00:20:36;;;;;;;;;;;-1.10;99.90;;;;;;4969373;28;19927;-71
2023/01/22 00:23:02;;;;;;;;;;;-1.10;99.90;;;;;;4961874;28;20377;-72
2023/01/22 00:25:29;;;;;;;;;;;-1.10;99.90;;;;;;4969757;28;19926;-70
2023/01/22 00:27:56;;;;;;;;;;;-1.10;99.90;;;;;;4965735;28;19934;-70
2023/01/22 00:30:22;;;;;;;;;;;-1.10;99.90;;;;;;4965821;28;20021;-72
2023/01/22 00:32:50;;;;;;;;;;;-1.10;99.90;;;;;;4965738;28;19926;-70
2023/01/22 00:35:17;;;;;;;;;;;-1.10;99.90;;;;;;4967358;28;20411;-73
2023/01/22 00:37:46;;;;;;;;;;;-1.10;99.90;;;;;;4967956;28;19926;-71
2023/01/22 00:40:13;;;;;;;;;;;-1.10;99.90;;;;;;4965990;28;19930;-71
2023/01/22 00:42:39;;;;;;;;;;;-1.10;99.90;;;;;;4966980;28;19926;-71
2023/01/22 00:45:07;;;;;;;;;;;-1.10;99.90;;;;;;4968593;28;19926;-71
2023/01/22 00:47:34;;;;;;;;;;;-1.10;99.90;;;;;;4966808;28;19926;-71
2023/01/22 00:50:02;;;;;;;;;;;-1.20;99.90;;;;;;4969446;28;19926;-71
2023/01/22 00:52:29;;;;;;;;;;;-1.10;99.90;;;;;;4964235;28;19965;-72
2023/01/22 00:54:55;;;;;;;;;;;-1.20;99.90;;;;;;4968317;28;19948;-70
2023/01/22 00:57:22;;;;;;;;;;;-1.30;99.90;;;;;;4963467;28;20046;-71
2023/01/22 00:59:49;;;;;;;;;;;-1.30;99.90;;;;;;4965857;28;19968;-71
2023/01/22 01:02:16;;;;;;;;;;;-1.30;99.90;;;;;;4967624;28;19937;-71
2023/01/22 01:04:43;;;;;;;;;;;-1.30;99.90;;;;;;4968053;28;20234;-71
2023/01/22 01:07:11;;;;;;;;;;;-1.30;99.90;;;;;;4966800;28;19932;-71
2023/01/22 01:09:37;;;;;;;;;;;-1.30;99.90;;;;;;4967873;28;19926;-70
2023/01/22 01:12:04;;;;;;;;;;;-1.30;99.90;;;;;;4963741;28;20333;-70
2023/01/22 01:14:31;;;;;;;;;;;-1.30;99.90;;;;;;4960783;28;20301;-70
2023/01/22 01:16:57;;;;;;;;;;;-1.30;99.90;;;;;;4967613;28;20314;-71
2023/01/22 01:19:24;;;;;;;;;;;-1.20;99.90;;;;;;4966150;28;19971;-71
2023/01/22 01:21:51;;;;;;;;;;;-1.20;99.90;;;;;;4968979;28;20029;-71
2023/01/22 01:24:19;;;;;;;;;;;-1.20;99.90;;;;;;4968632;28;19933;-71
2023/01/22 01:26:45;;;;;;;;;;;-1.20;99.90;;;;;;4969968;28;19926;-71
2023/01/22 01:29:12;;;;;;;;;;;-1.20;99.90;;;;;;4961655;28;20033;-71
2023/01/22 01:31:39;;;;;;;;;;;-1.20;99.90;;;;;;4965122;28;19930;-71
2023/01/22 01:34:06;;;;;;;;;;;-1.20;99.90;;;;;;4969769;28;19995;-70
2023/01/22 01:36:32;;;;;;;;;;;-1.10;99.90;;;;;;4971459;28;19995;-71
2023/01/22 01:38:59;;;;;;;;;;;-1.00;99.90;;;;;;4969322;28;20021;-70
2023/01/22 01:41:27;;;;;;;;;;;-1.00;99.90;;;;;;4971312;28;19927;-71
2023/01/22 01:44:07;;;;;;;;;;;-1.00;99.90;;;;;;4971205;28;19926;-71
2023/01/22 01:46:35;;;;;;;;;;;-1.00;99.90;;;;;;4971334;28;20017;-71
2023/01/22 01:49:02;;;;;;;;;;;-1.00;99.90;;;;;;4970566;28;19926;-71
2023/01/22 01:51:30;;;;;;;;;;;-1.00;99.90;;;;;;4971767;28;19949;-71
2023/01/22 01:53:59;;;;;;;;;;;-0.90;99.90;;;;;;4970616;28;19930;-70
2023/01/22 01:56:28;;;;;;;;;;;-0.90;99.90;;;;;;4967315;28;19926;-71
2023/01/22 01:58:57;;;;;;;;;;;-0.90;99.90;;;;;;4965247;28;19926;-71
2023/01/22 02:01:23;;;;;;;;;;;-0.90;99.90;;;;;;4967249;28;20304;-72
2023/01/22 02:03:50;;;;;;;;;;;-0.90;99.90;;;;;;4967413;28;19926;-71
2023/01/22 02:06:17;;;;;;;;;;;-0.80;99.90;;;;;;4970282;28;19926;-71
2023/01/22 02:08:45;;;;;;;;;;;-0.80;99.90;;;;;;4969862;28;19930;-71
2023/01/22 02:11:12;;;;;;;;;;;-0.80;99.90;;;;;;4967844;28;20385;-73
2023/01/22 02:13:41;;;;;;;;;;;-0.80;99.90;;;;;;4970193;28;19932;-70
2023/01/22 02:16:09;;;;;;;;;;;-0.70;99.90;;;;;;4969797;28;20010;-70
2023/01/22 02:18:35;;;;;;;;;;;-0.80;99.90;;;;;;4970231;28;19979;-70
2023/01/22 02:21:04;;;;;;;;;;;-0.70;99.90;;;;;;4965067;28;19932;-71
2023/01/22 02:23:31;;;;;;;;;;;-0.70;99.90;;;;;;4967003;28;19930;-71
2023/01/22 02:25:58;;;;;;;;;;;-0.70;99.90;;;;;;4969438;28;20381;-70
2023/01/22 02:28:25;;;;;;;;;;;-0.80;99.90;;;;;;4969207;28;20029;-70
2023/01/22 02:30:51;;;;;;;;;;;-0.70;99.90;;;;;;4970035;28;19926;-70
2023/01/22 02:33:18;;;;;;;;;;;-0.70;99.90;;;;;;4969673;28;19926;-71
2023/01/22 02:35:45;;;;;;;;;;;-0.70;99.90;;;;;;4969825;28;19932;-71
2023/01/22 02:38:13;;;;;;;;;;;-0.70;99.90;;;;;;4968782;28;20025;-70
2023/01/22 02:40:47;;;;;;;;;;;-0.70;99.90;;;;;;4968582;28;19926;-71
2023/01/22 02:43:14;;;;;;;;;;;-0.60;99.90;;;;;;4968384;28;19932;-71
2023/01/22 02:45:41;;;;;;;;;;;-0.60;99.90;;;;;;4970953;28;19926;-71
2023/01/22 02:48:08;;;;;;;;;;;-0.70;99.90;;;;;;4970039;28;20034;-71
2023/01/22 02:50:34;;;;;;;;;;;-0.60;99.90;;;;;;4972178;28;19960;-72
2023/01/22 02:53:01;;;;;;;;;;;-0.60;99.90;;;;;;4970786;28;19926;-71
2023/01/22 02:55:29;;;;;;;;;;;-0.60;99.90;;;;;;4963073;28;20021;-71
2023/01/22 02:57:56;;;;;;;;;;;-0.60;99.90;;;;;;4967469;28;19926;-70
2023/01/22 03:00:22;;;;;;;;;;;-0.60;99.90;;;;;;4971065;28;19926;-70
2023/01/22 03:02:49;;;;;;;;;;;-0.60;99.90;;;;;;4970139;28;19927;-70
2023/01/22 03:05:16;;;;;;;;;;;-0.60;99.90;;;;;;4969504;28;19926;-71
2023/01/22 03:07:43;;;;;;;;;;;-0.60;99.90;;;;;;4969688;28;19961;-71
2023/01/22 03:10:12;;;;;;;;;;;-0.60;99.90;;;;;;4971462;28;19933;-71
2023/01/22 03:23:36;;;;;;;;;;;-0.40;99.90;;;;;;4967057;28;19948;-70
2023/01/22 03:26:03;;;;;;;;;;;-0.40;99.90;;;;;;4967870;28;19927;-70
2023/01/22 03:28:31;;;;;;;;;;;-0.30;99.90;;;;;;4966609;28;19927;-71
2023/01/22 03:30:58;;;;;;;;;;;-0.30;99.90;;;;;;4966779;28;20375;-71
2023/01/22 03:33:24;;;;;;;;;;;-0.30;99.90;;;;;;4966579;28;19933;-70
2023/01/22 03:35:51;;;;;;;;;;;-0.30;99.90;;;;;;4966464;28;19976;-71
2023/01/22 03:38:17;;;;;;;;;;;-0.30;99.90;;;;;;4966355;28;20296;-70
2023/01/22 03:40:44;;;;;;;;;;;-0.30;99.90;;;;;;4969651;28;19932;-70
2023/01/22 03:43:11;;;;;;;;;;;-0.30;99.90;;;;;;4966711;28;19926;-71
2023/01/22 03:45:39;;;;;;;;;;;-0.30;99.90;;;;;;4967625;28;20025;-71
2023/01/22 03:48:05;;;;;;;;;;;-0.30;99.90;;;;;;4969800;28;19926;-71
2023/01/22 03:50:32;;;;;;;;;;;-0.20;99.90;;;;;;4979393;28;19926;-73
2023/01/22 03:52:59;;;;;;;;;;;-0.20;99.90;;;;;;4981355;28;20092;-70
2023/01/22 03:55:25;;;;;;;;;;;-0.20;99.90;;;;;;4976600;28;20013;-71
2023/01/22 03:57:52;;;;;;;;;;;-0.20;99.90;;;;;;4972498;28;20331;-71
2023/01/22 04:00:19;;;;;;;;;;;-0.30;99.90;;;;;;4979193;28;19932;-71
2023/01/22 04:02:48;;;;;;;;;;;-0.40;99.90;;;;;;4967027;28;19932;-70
2023/01/22 04:05:14;;;;;;;;;;;-0.50;99.90;;;;;;4967917;28;19937;-71
2023/01/22 04:07:41;;;;;;;;;;;-0.60;99.90;;;;;;4966560;28;20490;-71
2023/01/22 04:10:09;;;;;;;;;;;-0.60;99.90;;;;;;4969375;28;20026;-70
2023/01/22 04:12:35;;;;;;;;;;;-0.70;99.90;;;;;;4964600;28;19933;-70
2023/01/22 04:15:02;;;;;;;;;;;-0.80;99.90;;;;;;4969055;28;20408;-70
2023/01/22 04:17:29;;;;;;;;;;;-0.80;99.90;;;;;;4968527;28;19932;-71
2023/01/22 04:19:57;;;;;;;;;;;-0.80;99.90;;;;;;4967329;28;19926;-71
2023/01/22 04:22:23;;;;;;;;;;;-0.90;99.90;;;;;;4966689;28;20332;-70
2023/01/22 04:24:50;;;;;;;;;;;-0.90;99.90;;;;;;4969923;28;20369;-71
2023/01/22 04:27:17;;;;;;;;;;;-0.90;99.90;;;;;;4967203;28;20448;-71
2023/01/22 04:29:43;;;;;;;;;;;-1.00;99.90;;;;;;4963257;28;20574;-71
2023/01/22 04:32:10;;;;;;;;;;;-1.00;99.90;;;;;;4966752;28;20005;-71
2023/01/22 04:34:37;;;;;;;;;;;-0.90;99.90;;;;;;4967519;28;19926;-71
2023/01/22 04:37:05;;;;;;;;;;;-0.90;99.90;;;;;;4968228;28;20298;-71
2023/01/22 04:39:31;;;;;;;;;;;-0.90;99.90;;;;;;4967478;28;19948;-72
2023/01/22 04:41:58;;;;;;;;;;;-0.90;99.90;;;;;;4961550;28;19934;-70
2023/01/22 04:44:25;;;;;;;;;;;-1.00;99.90;;;;;;4963737;28;20012;-70
2023/01/22 04:46:51;;;;;;;;;;;-1.00;99.90;;;;;;4968662;28;20049;-71
2023/01/22 04:49:18;;;;;;;;;;;-1.00;99.90;;;;;;4968025;28;19926;-71
2023/01/22 04:51:45;;;;;;;;;;;-1.10;99.90;;;;;;4968974;28;19973;-72
2023/01/22 04:54:13;;;;;;;;;;;-1.10;99.90;;;;;;4960408;28;20590;-70
2023/01/22 04:56:39;;;;;;;;;;;-1.20;99.90;;;;;;4966532;28;19926;-71
2023/01/22 04:59:06;;;;;;;;;;;-1.10;99.90;;;;;;4966681;28;19962;-71
2023/01/22 05:01:33;;;;;;;;;;;-1.20;99.90;;;;;;4965478;28;19940;-70
2023/01/22 05:04:00;;;;;;;;;;;-1.20;99.90;;;;;;4965484;28;19934;-71
2023/01/22 05:06:27;;;;;;;;;;;-1.20;99.90;;;;;;4954065;28;19937;-72
2023/01/22 05:08:54;;;;;;;;;;;-1.20;99.90;;;;;;4968017;28;20300;-71
2023/01/22 05:11:22;;;;;;;;;;;-1.20;99.90;;;;;;4969544;28;20460;-71
2023/01/22 05:13:49;;;;;;;;;;;-1.30;99.90;;;;;;4966587;28;19933;-70
2023/01/22 05:16:15;;;;;;;;;;;-1.30;99.90;;;;;;4967859;28;19926;-70
2023/01/22 05:18:42;;;;;;;;;;;-1.20;99.90;;;;;;4962198;28;20010;-70
2023/01/22 05:21:09;;;;;;;;;;;-1.10;99.90;;;;;;4965892;28;19940;-71
2023/01/22 05:23:35;;;;;;;;;;;-1.00;99.90;;;;;;4963086;28;19973;-71
2023/01/22 05:26:02;;;;;;;;;;;-1.00;99.90;;;;;;4967369;28;20012;-70
2023/01/22 05:28:30;;;;;;;;;;;-0.90;99.90;;;;;;4966697;28;19948;-71
2023/01/22 05:30:56;;;;;;;;;;;-0.90;99.90;;;;;;4956336;28;19948;-69
2023/01/22 05:33:23;;;;;;;;;;;-0.80;99.90;;;;;;4961102;28;20033;-70
2023/01/22 05:35:57;;;;;;;;;;;-0.80;99.90;;;;;;4965991;28;19937;-70
2023/01/22 05:38:24;;;;;;;;;;;-0.80;99.90;;;;;;4966692;28;20404;-70
2023/01/22 05:40:50;;;;;;;;;;;-0.70;99.90;;;;;;4966667;28;19933;-70
2023/01/22 05:43:17;;;;;;;;;;;-0.70;99.90;;;;;;4965124;28;19932;-70
2023/01/22 05:45:45;;;;;;;;;;;-0.60;99.90;;;;;;4966053;28;20373;-70
2023/01/22 05:48:12;;;;;;;;;;;-0.60;99.90;;;;;;4964982;28;19987;-70
2023/01/22 05:50:39;;;;;;;;;;;-0.60;99.90;;;;;;4966352;28;20397;-69
2023/01/22 05:53:06;;;;;;;;;;;-0.60;99.90;;;;;;4965173;28;19954;-69
2023/01/22 05:55:33;;;;;;;;;;;-0.60;99.90;;;;;;4966901;28;19932;-69
2023/01/22 05:57:59;;;;;;;;;;;-0.50;99.90;;;;;;4965462;28;19948;-71
2023/01/22 06:00:26;;;;;;;;;;;-0.50;99.90;;;;;;4967733;28;19948;-70
2023/01/22 06:02:55;;;;;;;;;;;-0.60;99.90;;;;;;4963024;28;19932;-71
2023/01/22 06:05:22;;;;;;;;;;;-0.60;99.90;;;;;;4967669;28;19933;-70
2023/01/22 06:07:49;;;;;;;;;;;-0.60;99.90;;;;;;4969143;28;19926;-70
2023/01/22 06:10:16;;;;;;;;;;;-0.50;99.90;;;;;;4970570;28;19932;-72
2023/01/22 06:12:43;;;;;;;;;;;-0.40;99.90;;;;;;4967376;28;19933;-70
2023/01/22 06:15:10;;;;;;;;;;;-0.40;99.90;;;;;;4970473;28;19940;-70
2023/01/22 06:17:37;;;;;;;;;;;-0.20;99.90;;;;;;4969779;28;19988;-69
2023/01/22 06:20:05;;;;;;;;;;;-0.20;99.90;;;;;;4967935;28;20393;-71
2023/01/22 06:22:32;;;;;;;;;;;-0.10;99.90;;;;;;4967752;28;20009;-71
2023/01/22 06:24:59;;;;;;;;;;;-0.10;99.90;;;;;;4968706;28;19949;-71
2023/01/22 06:27:25;;;;;;;;;;;-0.10;99.90;;;;;;4965346;28;19926;-70
2023/01/22 06:29:52;;;;;;;;;;;0.00;99.90;;;;;;4962932;28;19926;-71
2023/01/22 06:32:19;;;;;;;;;;;0.00;99.90;;;;;;4967901;28;20033;-70
2023/01/22 06:34:45;;;;;;;;;;;0.00;99.90;;;;;;4971027;28;20009;-71
2023/01/22 06:37:13;;;;;;;;;;;0.00;99.90;;;;;;4962213;28;20020;-70
2023/01/22 06:39:40;;;;;;;;;;;0.00;99.90;;;;;;4969972;28;19932;-71
2023/01/22 06:42:07;;;;;;;;;;;-0.10;99.90;;;;;;4968459;28;20308;-71
2023/01/22 06:44:33;;;;;;;;;;;-0.10;99.90;;;;;;4966989;28;20355;-70
2023/01/22 06:47:00;;;;;;;;;;;-0.10;99.90;;;;;;4969798;28;20630;-70
2023/01/22 06:49:27;;;;;;;;;;;-0.10;99.90;;;;;;4971150;28;20392;-71
2023/01/22 06:51:53;;;;;;;;;;;-0.20;99.90;;;;;;4970042;28;20025;-71
2023/01/22 06:54:21;;;;;;;;;;;-0.20;99.90;;;;;;4964665;28;19988;-70
2023/01/22 06:56:48;;;;;;;;;;;-0.20;99.90;;;;;;4966037;28;19926;-70
2023/01/22 06:59:15;;;;;;;;;;;-0.20;99.90;;;;;;4969832;28;20286;-71
2023/01/22 07:01:41;;;;;;;;;;;-0.20;99.90;;;;;;4972252;28;20016;-71
2023/01/22 07:04:09;;;;;;;;;;;-0.20;99.90;;;;;;4968911;28;19926;-71
2023/01/22 07:06:36;;;;;;;;;;;-0.20;99.90;;;;;;4966780;28;19926;-70
2023/01/22 07:09:02;;;;;;;;;;;-0.20;99.90;;;;;;4968792;28;20440;-71
2023/01/22 07:11:31;;;;;;;;;;;-0.20;99.90;;;;;;4966507;28;21516;-71
2023/01/22 07:13:57;;;;;;;;;;;-0.20;99.90;;;;;;4955307;28;20001;-70
2023/01/22 07:16:24;;;;;;;;;;;-0.20;99.90;;;;;;4963915;28;20025;-70
2023/01/22 07:18:50;;;;;;;;;;;-0.20;99.90;;;;;;4969205;28;19930;-69
2023/01/22 07:21:17;;;;;;;;;;;-0.20;99.90;;;;;;4968980;28;19933;-70
2023/01/22 07:23:44;;;;;;;;;;;-0.20;99.90;;;;;;4969914;28;19926;-70
2023/01/22 07:26:10;;;;;;;;;;;-0.20;99.90;;;;;;4962067;28;19932;-70
2023/01/22 07:28:38;;;;;;;;;;;-0.30;99.90;;;;;;4962457;28;19930;-71
2023/01/22 07:31:08;;;;;;;;;;;-0.30;99.90;;;;;;4967644;28;19940;-71
2023/01/22 07:33:35;;;;;;;;;;;-0.30;99.90;;;;;;4967242;28;20507;-71
2023/01/22 07:36:02;;;;;;;;;;;-0.30;99.90;;;;;;4968870;28;19997;-70
2023/01/22 07:38:29;;;;;;;;;;;-0.30;99.90;;;;;;4960696;28;20045;-70
2023/01/22 07:40:59;;;;;;;;;;;-0.30;99.90;;;;;;4970460;28;19926;-70
2023/01/22 07:43:26;;;;;;;;;;;-0.30;99.90;;;;;;4967491;28;19961;-71
2023/01/22 07:45:56;;;;;;;;;;;-0.40;99.90;;;;;;4971101;28;19926;-70
2023/01/22 07:48:22;;;;;;;;;;;-0.40;99.90;;;;;;4963821;28;19932;-70
2023/01/22 07:50:49;;;;;;;;;;;-0.40;99.90;;;;;;4966695;28;19956;-70
2023/01/22 07:53:16;;;;;;;;;;;-0.40;99.90;;;;;;4967522;28;19930;-69
2023/01/22 07:55:42;;;;;;;;;;;-0.40;99.90;;;;;;4965825;28;19926;-69
2023/01/22 07:58:13;;;;;;;;;;;-0.40;99.90;;;;;;4967179;28;19926;-71
2023/01/22 08:00:40;;;;;;;;;;;-0.40;99.90;;;;;;4965035;28;20014;-72
2023/01/22 08:03:10;;;;;;;;;;;-0.40;99.90;;;;;;4963433;28;20049;-71
2023/01/22 08:05:37;;;;;;;;;;;-0.40;99.90;;;;;;4967664;28;20285;-72
2023/01/22 08:08:03;;;;;;;;;;;-0.40;99.90;;;;;;4966703;28;19926;-73
2023/01/22 08:10:30;;;;;;;;;;;-0.40;99.90;;;;;;4964281;28;19927;-73
2023/01/22 08:12:57;;;;;;;;;;;-0.40;99.90;;;;;;4968711;28;19941;-73
2023/01/22 08:15:23;;;;;;;;;;;-0.30;99.90;;;;;;4971782;28;20016;-71
2023/01/22 08:17:50;;;;;;;;;;;-0.40;99.90;;;;;;4966737;28;19936;-71
2023/01/22 08:20:19;;;;;;;;;;;-0.40;99.90;;;;;;4965537;28;20021;-72
2023/01/22 08:22:46;;;;;;;;;;;-0.30;99.90;;;;;;4960099;28;20358;-70
2023/01/22 08:25:13;;;;;;;;;;;-0.40;99.90;;;;;;4964789;28;19973;-71
2023/01/22 08:27:40;;;;;;;;;;;-0.30;99.90;;;;;;4961501;28;20301;-71
2023/01/22 08:30:07;;;;;;;;;;;-0.30;99.90;;;;;;4964297;28;19973;-72
2023/01/22 08:32:34;;;;;;;;;;;-0.30;99.90;;;;;;4968444;28;19988;-71
2023/01/22 08:35:01;;;;;;;;;;;-0.30;99.90;;;;;;4967607;28;19932;-72
2023/01/22 08:37:29;;;;;;;;;;;-0.30;99.90;;;;;;4965520;28;19926;-71
2023/01/22 08:39:56;;;;;;;;;;;-0.30;99.90;;;;;;4954230;28;19949;-71
2023/01/22 08:42:22;;;;;;;;;;;-0.30;99.90;;;;;;4965823;28;20386;-71
2023/01/22 08:44:49;;;;;;;;;;;-0.30;99.90;;;;;;4964605;28;19926;-71
2023/01/22 08:47:16;;;;;;;;;;;-0.30;99.90;;;;;;4967324;28;20017;-71
2023/01/22 08:49:42;;;;;;;;;;;-0.30;99.90;;;;;;4968979;28;19933;-70
2023/01/22 08:52:09;;;;;;;;;;;-0.30;99.90;;;;;;4963562;28;19932;-71
2023/01/22 08:54:37;;;;;;;;;;;-0.30;99.90;;;;;;4967224;28;20093;-70
2023/01/22 08:57:04;;;;;;;;;;;-0.30;99.90;;;;;;4965553;28;20278;-72
2023/01/22 08:59:31;;;;;;;;;;;-0.30;99.90;;;;;;4970162;28;20567;-71
2023/01/22 09:01:57;;;;;;;;;;;-0.30;99.90;;;;;;4965545;28;20185;-71
2023/01/22 09:04:24;;;;;;;;;;;-0.30;99.90;;;;;;4958590;28;20517;-71
2023/01/22 09:06:51;;;;;;;;;;;-0.30;99.90;;;;;;4964280;28;20468;-72
2023/01/22 09:09:17;;;;;;;;;;;-0.30;99.90;;;;;;4967242;28;20308;-72
2023/01/22 09:11:46;;;;;;;;;;;-0.30;99.90;;;;;;4962229;28;19977;-72
2023/01/22 09:14:12;;;;;;;;;;;-0.30;99.90;;;;;;4958106;28;19926;-71
2023/01/22 09:16:40;;;;;;;;;;;-0.30;99.90;;;;;;4951368;28;20270;-71
2023/01/22 09:19:06;;;;;;;;;;;-0.30;99.90;;;;;;4961297;28;19927;-72
2023/01/22 09:21:36;;;;;;;;;;;-0.20;99.90;;;;;;4965525;28;19932;-71
2023/01/22 09:24:02;;;;;;;;;;;-0.30;99.90;;;;;;4962032;28;19941;-71
2023/01/22 09:26:31;;;;;;;;;;;-0.30;99.90;;;;;;4960503;28;19952;-72
2023/01/22 09:28:59;;;;;;;;;;;-0.30;99.90;;;;;;4961287;28;19926;-74
2023/01/22 09:31:26;;;;;;;;;;;-0.30;99.90;;;;;;4965477;28;19965;-71
2023/01/22 09:33:54;;;;;;;;;;;-0.30;99.90;;;;;;4965760;28;20011;-71
2023/01/22 09:36:21;;;;;;;;;;;-0.20;99.90;;;;;;4964306;28;19926;-71
2023/01/22 09:38:48;;;;;;;;;;;-0.20;99.90;;;;;;4956646;28;19940;-71
2023/01/22 09:41:19;;;;;;;;;;;-0.20;99.90;;;;;;4968205;28;19930;-71
2023/01/22 09:43:47;;;;;;;;;;;-0.20;99.90;;;;;;4968968;28;19926;-72
2023/01/22 09:46:18;;;;;;;;;;;-0.20;99.90;;;;;;4963953;28;19931;-73
2023/01/22 09:48:46;;;;;;;;;;;-0.20;99.90;;;;;;4963276;28;19933;-72
2023/01/22 09:51:13;;;;;;;;;;;-0.10;99.90;;;;;;4966511;28;19926;-73
2023/01/22 09:53:40;;;;;;;;;;;-0.10;99.90;;;;;;4971571;28;19924;-72
2023/01/22 09:56:11;;;;;;;;;;;-0.10;99.90;;;;;;4966152;28;20351;-72
2023/01/22 09:58:39;;;;;;;;;;;-0.10;99.90;;;;;;4963062;28;19930;-72
2023/01/22 10:01:06;;;;;;;;;;;-0.10;99.90;;;;;;4962763;28;19926;-74
2023/01/22 10:03:36;;;;;;;;;;;-0.10;99.90;;;;;;4968434;28;20020;-72
2023/01/22 10:06:05;;;;;;;;;;;-0.10;99.90;;;;;;4968560;28;19930;-71
2023/01/22 10:08:33;;;;;;;;;;;-0.10;99.90;;;;;;4968964;28;20445;-71
2023/01/22 10:11:00;;;;;;;;;;;0.00;99.90;;;;;;4959082;28;20384;-71
2023/01/22 10:13:28;;;;;;;;;;;0.00;99.90;;;;;;4972612;28;19927;-72
2023/01/22 10:15:56;;;;;;;;;;;0.00;99.90;;;;;;4973957;28;19926;-72
2023/01/22 10:18:26;;;;;;;;;;;0.00;99.90;;;;;;4972855;28;19944;-73
2023/01/22 10:20:55;;;;;;;;;;;0.00;99.90;;;;;;4974552;28;20271;-72
2023/01/22 10:23:24;;;;;;;;;;;0.00;99.90;;;;;;4967252;28;20029;-72
2023/01/22 10:25:53;;;;;;;;;;;0.00;99.90;;;;;;4970665;28;19926;-72
2023/01/22 10:28:23;;;;;;;;;;;0.00;99.90;;;;;;4969491;28;19927;-72
2023/01/22 10:30:51;;;;;;;;;;;0.00;99.90;;;;;;4959823;28;20012;-72
2023/01/22 10:33:21;;;;;;;;;;;0.00;99.90;;;;;;4969648;28;19930;-71
2023/01/22 10:35:52;;;;;;;;;;;0.10;99.90;;;;;;4967476;28;20029;-72
2023/01/22 10:38:24;;;;;;;;;;;0.10;99.90;;;;;;4959902;28;19926;-72
2023/01/22 10:40:55;;;;;;;;;;;0.10;99.90;;;;;;4962623;28;19934;-71
2023/01/22 10:43:24;;;;;;;;;;;0.10;99.90;;;;;;4966979;28;19972;-72
2023/01/22 10:45:51;;;;;;;;;;;0.10;99.90;;;;;;4966010;28;20017;-71
2023/01/22 10:48:19;;;;;;;;;;;0.20;99.90;;;;;;4969746;28;19933;-71
2023/01/22 10:50:46;;;;;;;;;;;0.20;99.90;;;;;;4972381;28;20005;-72
2023/01/22 10:53:15;;;;;;;;;;;0.10;99.90;;;;;;4973235;28;19986;-71
2023/01/22 10:55:50;;;;;;;;;;;0.20;99.90;;;;;;4966315;28;20023;-72
2023/01/22 10:58:20;;;;;;;;;;;0.20;99.90;;;;;;4967340;28;19949;-71
2023/01/22 11:00:55;;;;;;;;;;;0.20;99.90;;;;;;4965487;28;19933;-71
2023/01/22 11:03:23;;;;;;;;;;;0.30;99.90;;;;;;4963714;28;19927;-71
2023/01/22 11:05:51;;;;;;;;;;;0.30;99.90;;;;;;4964657;28;19967;-72
2023/01/22 11:08:19;;;;;;;;;;;0.30;99.90;;;;;;4960684;28;20006;-73
2023/01/22 11:10:50;;;;;;;;;;;0.20;99.90;;;;;;4967487;28;19930;-72
2023/01/22 11:13:19;;;;;;;;;;;0.30;99.90;;;;;;4964983;28;19926;-73
2023/01/22 11:15:47;;;;;;;;;;;0.30;99.90;;;;;;4964943;28;19948;-73
2023/01/22 11:18:16;;;;;;;;;;;0.30;99.90;;;;;;4968095;28;19926;-72
2023/01/22 11:20:45;;;;;;;;;;;0.30;99.90;;;;;;4963393;28;19926;-72
2023/01/22 11:23:18;;;;;;;;;;;0.30;99.90;;;;;;4966557;28;19930;-72
2023/01/22 11:25:45;;;;;;;;;;;0.40;99.90;;;;;;4963679;28;19941;-73
2023/01/22 11:28:20;;;;;;;;;;;0.40;99.90;;;;;;4961384;28;19940;-85
2023/01/22 11:30:51;;;;;;;;;;;0.30;99.90;;;;;;4966122;28;20021;-84
2023/01/22 11:33:21;;;;;;;;;;;0.30;99.90;;;;;;4966209;28;19961;-83
2023/01/22 11:35:51;;;;;;;;;;;0.40;99.90;;;;;;4965521;28;19932;-84
2023/01/22 11:38:22;;;;;;;;;;;0.30;99.90;;;;;;4966993;28;19930;-85
2023/01/22 11:41:09;;;;;;;;;;;0.40;99.90;;;;;;4969673;28;20021;-85
2023/01/22 11:43:54;;;;;;;;;;;0.40;99.90;;;;;;4969723;28;19926;-84
2023/01/22 11:46:35;;;;;;;;;;;0.30;99.90;;;;;;4961639;28;20017;-82
2023/01/22 11:49:10;;;;;;;;;;;0.40;99.90;;;;;;4968460;28;19934;-83
2023/01/22 11:51:41;;;;;;;;;;;0.40;99.90;;;;;;4967234;28;19988;-80
2023/01/22 11:54:18;;;;;;;;;;;0.40;99.90;;;;;;4965730;28;20712;-81
2023/01/22 11:56:51;;;;;;;;;;;0.40;99.90;;;;;;4970150;28;20021;-84
2023/01/22 11:59:24;;;;;;;;;;;0.40;99.90;;;;;;4967467;28;20028;-80
2023/01/22 12:01:58;;;;;;;;;;;0.40;99.90;;;;;;4964358;28;19940;-74
2023/01/22 12:04:43;;;;;;;;;;;0.40;99.90;;;;;;4963228;28;20085;-73
2023/01/22 12:07:20;;;;;;;;;;;0.40;99.90;;;;;;4954980;28;19930;-72
2023/01/22 12:09:50;;;;;;;;;;;0.50;99.90;;;;;;4963520;28;20005;-72
2023/01/22 12:12:24;;;;;;;;;;;0.50;99.90;;;;;;4973451;28;20034;-73
2023/01/22 12:14:58;;;;;;;;;;;0.50;99.90;;;;;;4963849;28;19926;-71
2023/01/22 12:17:41;;;;;;;;;;;0.50;99.90;;;;;;4965612;28;19940;-72
2023/01/22 12:20:20;;;;;;;;;;;0.50;99.90;;;;;;4967289;28;19926;-75
2023/01/22 12:22:50;;;;;;;;;;;0.60;99.90;;;;;;4962579;28;19926;-73
2023/01/22 12:25:19;;;;;;;;;;;0.60;99.90;;;;;;4968630;28;20005;-70
2023/01/22 12:27:48;;;;;;;;;;;0.60;99.90;;;;;;4961539;28;19931;-72
2023/01/22 12:30:19;;;;;;;;;;;0.60;99.90;;;;;;4961526;28;19934;-72
2023/01/22 12:32:48;;;;;;;;;;;0.70;99.90;;;;;;4956699;28;20030;-72
2023/01/22 12:35:16;;;;;;;;;;;0.70;99.90;;;;;;4958817;28;19926;-72
2023/01/22 12:37:45;;;;;;;;;;;0.80;99.90;;;;;;4957797;28;20405;-74
2023/01/22 12:40:39;;;;;;;;;;;0.70;99.90;;;;;;4966120;28;21044;-73
2023/01/22 12:43:06;;;;;;;;;;;0.70;99.90;;;;;;4987994;28;20025;-77
2023/01/22 12:45:39;;;;;;;;;;;0.90;99.90;;;;;;4965868;28;20024;-72
2023/01/22 12:48:16;;;;;;;;;;;0.90;99.90;;;;;;4961969;28;20013;-72
2023/01/22 12:50:48;;;;;;;;;;;0.90;99.90;;;;;;4968173;28;19933;-74
2023/01/22 12:53:21;;;;;;;;;;;0.90;99.90;;;;;;4967989;28;19926;-72
2023/01/22 12:55:57;;;;;;;;;;;0.80;99.90;;;;;;4972114;28;20012;-71
2023/01/22 12:58:25;;;;;;;;;;;0.90;99.90;;;;;;4965342;28;19953;-72
2023/01/22 13:01:01;;;;;;;;;;;0.80;99.90;;;;;;4964685;28;20216;-72
2023/01/22 13:03:28;;;;;;;;;;;0.70;99.90;;;;;;4966090;28;20417;-72
2023/01/22 13:05:55;;;;;;;;;;;0.70;99.90;;;;;;4966226;28;19938;-72
2023/01/22 13:08:34;;;;;;;;;;;0.70;99.90;;;;;;4958048;28;20017;-72
2023/01/22 13:11:02;;;;;;;;;;;0.70;99.90;;;;;;4973941;28;20438;-71
2023/01/22 13:13:30;;;;;;;;;;;0.80;99.90;;;;;;4964808;28;19930;-71
2023/01/22 13:15:59;;;;;;;;;;;0.90;99.90;;;;;;4954178;28;20108;-72
2023/01/22 13:18:29;;;;;;;;;;;0.90;99.90;;;;;;4957982;28;20519;-72
2023/01/22 13:21:01;;;;;;;;;;;0.80;99.90;;;;;;4960564;28;20591;-72
2023/01/22 13:23:29;;;;;;;;;;;0.80;99.90;;;;;;4965841;28;19930;-71
2023/01/22 13:25:56;;;;;;;;;;;0.80;99.90;;;;;;4967141;28;19977;-72
2023/01/22 13:28:24;;;;;;;;;;;0.80;99.90;;;;;;4959742;28;20426;-71
2023/01/22 13:31:00;;;;;;;;;;;0.80;99.90;;;;;;4961836;28;20041;-71
2023/01/22 13:33:28;;;;;;;;;;;0.80;99.90;;;;;;4961446;28;20304;-71
2023/01/22 13:35:55;;;;;;;;;;;0.80;99.90;;;;;;4965037;28;19934;-72
2023/01/22 13:38:23;;;;;;;;;;;0.90;99.90;;;;;;4962248;28;19926;-71
2023/01/22 13:40:53;;;;;;;;;;;0.90;99.90;;;;;;4963505;28;19968;-71
2023/01/22 13:43:21;;;;;;;;;;;0.90;99.90;;;;;;4968066;28;20467;-71
2023/01/22 13:45:49;;;;;;;;;;;0.90;99.90;;;;;;4962195;28;19927;-71
2023/01/22 13:48:17;;;;;;;;;;;0.80;99.90;;;;;;4964588;28;19933;-71
2023/01/22 13:50:53;;;;;;;;;;;0.80;99.90;;;;;;4966089;28;20017;-72
2023/01/22 13:53:23;;;;;;;;;;;0.90;99.90;;;;;;4964781;28;19997;-71
2023/01/22 13:55:50;;;;;;;;;;;1.00;99.90;;;;;;4965363;28;19925;-71
2023/01/22 13:58:30;;;;;;;;;;;1.00;99.90;;;;;;4964676;28;20259;-72
2023/01/22 14:00:56;;;;;;;;;;;1.00;99.90;;;;;;4966326;28;20293;-71
2023/01/22 14:03:24;;;;;;;;;;;1.00;99.90;;;;;;4961679;28;19934;-71
2023/01/22 14:06:01;;;;;;;;;;;1.00;99.90;;;;;;4963121;28;20316;-71
2023/01/22 14:08:28;;;;;;;;;;;1.00;99.90;;;;;;4965812;28;19938;-70
2023/01/22 14:10:56;;;;;;;;;;;1.00;99.90;;;;;;4963368;28;19926;-72
2023/01/22 14:13:23;;;;;;;;;;;1.00;99.90;;;;;;4961372;28;19934;-72
2023/01/22 14:16:05;;;;;;;;;;;1.00;99.90;;;;;;4966823;28;20009;-72
2023/01/22 14:18:33;;;;;;;;;;;1.00;99.90;;;;;;4963516;28;19926;-71
2023/01/22 14:21:01;;;;;;;;;;;1.00;99.90;;;;;;4963747;28;19930;-71
2023/01/22 14:23:28;;;;;;;;;;;1.00;99.90;;;;;;4959012;28;19926;-71
2023/01/22 14:25:55;;;;;;;;;;;1.10;99.90;;;;;;4965355;28;19926;-71
2023/01/22 14:28:23;;;;;;;;;;;1.10;99.90;;;;;;4963118;28;19974;-71
2023/01/22 14:30:50;;;;;;;;;;;1.10;99.90;;;;;;4965239;28;19999;-69
2023/01/22 14:33:19;;;;;;;;;;;1.10;99.90;;;;;;4963807;28;19934;-69
2023/01/22 14:35:46;;;;;;;;;;;1.00;99.90;;;;;;4962722;28;20407;-70
2023/01/22 14:38:14;;;;;;;;;;;1.00;99.90;;;;;;4963242;28;19940;-70